Lithonia, GA (30038)

2:15 AM EST on February 22, 2017 (GMT -0500)
MGA314 | | Change Station

Elev 921 ft 33.71 °N, 84.21 °W | Updated 12 minutes ago

Overcast
Overcast
61.0 °F
Feels Like 61.0 °F
N
6.0
Wind Variable Wind from East
Gusts 12.0 mph

Today
High -- | Low -- °F
--% Chance of Precip.
Yesterday
High -- | Low -- °F
Precip. -- in
Pressure 29.90 in
Visibility 9.0 miles
Clouds Overcast 1300 ft
Dew Point 58 °F
Humidity 91%
Rainfall 0.11 in
Snow Depth Not available.
7:13 AM 6:27 PM
Waning Crescent, 19% visible
SPECI KATL 220707Z 09009KT 9SM -RA OVC013 16/15 A2990 RMK AO2 RAB0653 P0000 T01610150
Pressure 29.90 in
Visibility 9.0 miles
Clouds Overcast 1300 ft
Dew Point 58 °F
Humidity 91%
Rainfall 0.11 in
Snow Depth Not available.
7:13 AM 6:27 PM
Waning Crescent, 19% visible
SPECI KATL 220707Z 09009KT 9SM -RA OVC013 16/15 A2990 RMK AO2 RAB0653 P0000 T01610150

Get Your Daily Forecast Email!

Thanks for signing up!

Be on the lookout for a verification email in your inbox.

You'll start receiving the daily forecast at 8 AM.

×

10-Day Weather Forecast

Almanac

Astronomy

Feb. 22, 2017 Rise Set
Actual Time
Civil Twilight
Nautical Twilight
Astronomical Twilight
Moon
Length of Visible Light
Length of Day
Tomorrow will be .
, % of the Moon is Illuminated

Today's Extremes

State Highs State Lows

Community

WunderPhotos

Upload Photos

1,962,540 photos uploaded!

WunderBlog® & News

Nearby

Air Quality

  Air Quality AQ Index Pollutant
Not available.

Snow Depth

Station Depth Elevation

Earthquake Activity

City Distance Mag. Time & Date
Minimum magnitude displayed is 2.5.

Coastal Water Temperatures

Place Temperature

Stations

Nearby Weather Stations

Station Location Temp. Windchill Dew Point Humidity Wind Precip. Elev Updated Type
                   

Watches & Warnings

There are currently no watches in effect.